sensor_id;sensor_type;location;lat;lon;timestamp;pressure;altitude;pressure_sealevel;temperature;humidity
50852;BME280;43953;45.508;-122.806;2023-07-29T00:00:24;100765.34;;;26.57;38.43
50852;BME280;43953;45.508;-122.806;2023-07-29T00:00:56;100765.34;;;26.57;38.38
50852;BME280;43953;45.508;-122.806;2023-07-29T00:01:28;100762.25;;;26.59;38.34
50852;BME280;43953;45.508;-122.806;2023-07-29T00:01:59;100766.97;;;26.58;38.09
50852;BME280;43953;45.508;-122.806;2023-07-29T00:02:31;100761.47;;;26.58;37.98
50852;BME280;43953;45.508;-122.806;2023-07-29T00:03:03;100757.59;;;26.59;38.09
50852;BME280;43953;45.508;-122.806;2023-07-29T00:03:35;100761.97;;;26.60;37.93
50852;BME280;43953;45.508;-122.806;2023-07-29T00:04:07;100764.72;;;26.60;37.80
50852;BME280;43953;45.508;-122.806;2023-07-29T00:04:40;100760.81;;;26.61;38.26
50852;BME280;43953;45.508;-122.806;2023-07-29T00:05:12;100760.81;;;26.61;38.32
50852;BME280;43953;45.508;-122.806;2023-07-29T00:05:44;100767.16;;;26.62;38.13
50852;BME280;43953;45.508;-122.806;2023-07-29T00:06:15;100763.59;;;26.61;38.25
50852;BME280;43953;45.508;-122.806;2023-07-29T00:06:47;100762.47;;;26.62;38.02
50852;BME280;43953;45.508;-122.806;2023-07-29T00:07:19;100763.59;;;26.61;37.95
50852;BME280;43953;45.508;-122.806;2023-07-29T00:07:50;100764.09;;;26.63;38.32
50852;BME280;43953;45.508;-122.806;2023-07-29T00:08:22;100758.56;;;26.63;38.27
50852;BME280;43953;45.508;-122.806;2023-07-29T00:08:54;100763.28;;;26.63;38.35
50852;BME280;43953;45.508;-122.806;2023-07-29T00:09:25;100764.91;;;26.64;38.02
50852;BME280;43953;45.508;-122.806;2023-07-29T00:09:57;100759.38;;;26.64;38.26
50852;BME280;43953;45.508;-122.806;2023-07-29T00:10:31;100760.19;;;26.64;38.24
50852;BME280;43953;45.508;-122.806;2023-07-29T00:11:03;100758.25;;;26.65;38.40
50852;BME280;43953;45.508;-122.806;2023-07-29T00:11:35;100759.38;;;26.64;38.37
50852;BME280;43953;45.508;-122.806;2023-07-29T00:12:07;100761.84;;;26.65;38.29
50852;BME280;43953;45.508;-122.806;2023-07-29T00:12:39;100761.84;;;26.65;38.01
50852;BME280;43953;45.508;-122.806;2023-07-29T00:13:10;100761.84;;;26.65;38.40
50852;BME280;43953;45.508;-122.806;2023-07-29T00:13:42;100756.31;;;26.65;38.05
50852;BME280;43953;45.508;-122.806;2023-07-29T00:14:14;100767.84;;;26.67;38.22
50852;BME280;43953;45.508;-122.806;2023-07-29T00:14:46;100754.03;;;26.67;38.25
50852;BME280;43953;45.508;-122.806;2023-07-29T00:15:17;100762.00;;;26.69;38.36
50852;BME280;43953;45.508;-122.806;2023-07-29T00:15:49;100757.31;;;26.69;38.41
50852;BME280;43953;45.508;-122.806;2023-07-29T00:16:21;100760.56;;;26.71;38.02
50852;BME280;43953;45.508;-122.806;2023-07-29T00:16:53;100761.88;;;26.74;38.34
50852;BME280;43953;45.508;-122.806;2023-07-29T00:17:25;100761.88;;;26.74;38.39
50852;BME280;43953;45.508;-122.806;2023-07-29T00:17:56;100755.22;;;26.75;38.25
50852;BME280;43953;45.508;-122.806;2023-07-29T00:18:28;100754.91;;;26.76;37.84
50852;BME280;43953;45.508;-122.806;2023-07-29T00:19:00;100763.19;;;26.76;38.25
50852;BME280;43953;45.508;-122.806;2023-07-29T00:19:31;100759.31;;;26.77;38.29
50852;BME280;43953;45.508;-122.806;2023-07-29T00:20:06;100760.94;;;26.78;38.17
50852;BME280;43953;45.508;-122.806;2023-07-29T00:20:38;100753.44;;;26.79;38.18
50852;BME280;43953;45.508;-122.806;2023-07-29T00:21:10;100751.50;;;26.80;37.89
50852;BME280;43953;45.508;-122.806;2023-07-29T00:21:41;100751.50;;;26.80;38.14
50852;BME280;43953;45.508;-122.806;2023-07-29T00:22:13;100751.50;;;26.80;38.10
50852;BME280;43953;45.508;-122.806;2023-07-29T00:22:45;100746.81;;;26.80;37.71
50852;BME280;43953;45.508;-122.806;2023-07-29T00:23:17;100746.47;;;26.82;37.86
50852;BME280;43953;45.508;-122.806;2023-07-29T00:23:52;100744.53;;;26.82;38.15
50852;BME280;43953;45.508;-122.806;2023-07-29T00:24:25;100749.75;;;26.84;37.85
50852;BME280;43953;45.508;-122.806;2023-07-29T00:24:57;100744.22;;;26.84;37.96
50852;BME280;43953;45.508;-122.806;2023-07-29T00:25:29;100745.84;;;26.85;38.01
50852;BME280;43953;45.508;-122.806;2023-07-29T00:26:00;100737.56;;;26.85;37.79
50852;BME280;43953;45.508;-122.806;2023-07-29T00:26:32;100750.22;;;26.86;38.11
50852;BME280;43953;45.508;-122.806;2023-07-29T00:27:04;100746.66;;;26.85;38.08
50852;BME280;43953;45.508;-122.806;2023-07-29T00:27:35;100744.69;;;26.86;37.90
50852;BME280;43953;45.508;-122.806;2023-07-29T00:28:07;100744.69;;;26.86;37.58
50852;BME280;43953;45.508;-122.806;2023-07-29T00:28:39;100745.84;;;26.85;38.14
50852;BME280;43953;45.508;-122.806;2023-07-29T00:29:11;100750.22;;;26.86;38.22
50852;BME280;43953;45.508;-122.806;2023-07-29T00:29:42;100750.22;;;26.86;37.78
50852;BME280;43953;45.508;-122.806;2023-07-29T00:30:14;100750.22;;;26.86;37.44
50852;BME280;43953;45.508;-122.806;2023-07-29T00:30:46;100749.91;;;26.87;37.75
50852;BME280;43953;45.508;-122.806;2023-07-29T00:31:17;100747.16;;;26.87;37.03
50852;BME280;43953;45.508;-122.806;2023-07-29T00:31:49;100742.44;;;26.88;36.98
50852;BME280;43953;45.508;-122.806;2023-07-29T00:32:21;100737.72;;;26.88;37.00
50852;BME280;43953;45.508;-122.806;2023-07-29T00:32:52;100743.25;;;26.88;37.40
50852;BME280;43953;45.508;-122.806;2023-07-29T00:33:24;100744.09;;;26.89;37.70
50852;BME280;43953;45.508;-122.806;2023-07-29T00:33:56;100752.38;;;26.89;37.59
50852;BME280;43953;45.508;-122.806;2023-07-29T00:34:29;100745.72;;;26.90;37.53
50852;BME280;43953;45.508;-122.806;2023-07-29T00:35:02;100742.94;;;26.90;37.46
50852;BME280;43953;45.508;-122.806;2023-07-29T00:35:34;100744.56;;;26.91;37.73
50852;BME280;43953;45.508;-122.806;2023-07-29T00:36:06;100741.81;;;26.91;37.45
50852;BME280;43953;45.508;-122.806;2023-07-29T00:36:37;100752.84;;;26.91;37.69
50852;BME280;43953;45.508;-122.806;2023-07-29T00:37:09;100743.47;;;26.92;37.68
50852;BME280;43953;45.508;-122.806;2023-07-29T00:37:41;100748.97;;;26.92;37.48
50852;BME280;43953;45.508;-122.806;2023-07-29T00:38:13;100742.31;;;26.93;37.68
50852;BME280;43953;45.508;-122.806;2023-07-29T00:38:45;100745.88;;;26.93;37.48
50852;BME280;43953;45.508;-122.806;2023-07-29T00:39:17;100746.69;;;26.94;38.00
50852;BME280;43953;45.508;-122.806;2023-07-29T00:39:50;100748.34;;;26.95;37.43
50852;BME280;43953;45.508;-122.806;2023-07-29T00:40:22;100749.16;;;26.95;37.03
50852;BME280;43953;45.508;-122.806;2023-07-29T00:40:56;100746.38;;;26.95;37.12
50852;BME280;43953;45.508;-122.806;2023-07-29T00:41:28;100741.69;;;26.96;37.52
50852;BME280;43953;45.508;-122.806;2023-07-29T00:42:00;100746.06;;;26.97;37.40
50852;BME280;43953;45.508;-122.806;2023-07-29T00:42:31;100748.00;;;26.96;37.30
50852;BME280;43953;45.508;-122.806;2023-07-29T00:43:03;100748.00;;;26.96;37.61
50852;BME280;43953;45.508;-122.806;2023-07-29T00:43:35;100741.69;;;26.96;37.61
50852;BME280;43953;45.508;-122.806;2023-07-29T00:44:07;100744.09;;;26.97;37.74
50852;BME280;43953;45.508;-122.806;2023-07-29T00:44:38;100740.88;;;26.95;37.57
50852;BME280;43953;45.508;-122.806;2023-07-29T00:45:10;100744.94;;;26.98;37.89
50852;BME280;43953;45.508;-122.806;2023-07-29T00:45:43;100743.78;;;26.99;38.00
50852;BME280;43953;45.508;-122.806;2023-07-29T00:46:17;100739.09;;;26.99;37.58
50852;BME280;43953;45.508;-122.806;2023-07-29T00:46:51;100741.84;;;26.99;37.71
50852;BME280;43953;45.508;-122.806;2023-07-29T00:47:25;100743.78;;;26.99;37.58
50852;BME280;43953;45.508;-122.806;2023-07-29T00:47:57;100744.31;;;27.01;37.66
50852;BME280;43953;45.508;-122.806;2023-07-29T00:48:29;100744.31;;;27.01;37.64
50852;BME280;43953;45.508;-122.806;2023-07-29T00:49:01;100745.91;;;27.02;37.41
50852;BME280;43953;45.508;-122.806;2023-07-29T00:49:33;100739.25;;;27.03;37.49
50852;BME280;43953;45.508;-122.806;2023-07-29T00:50:09;100735.38;;;27.04;37.36
50852;BME280;43953;45.508;-122.806;2023-07-29T00:50:41;100732.59;;;27.04;37.17
50852;BME280;43953;45.508;-122.806;2023-07-29T00:51:13;100740.91;;;27.04;37.28
50852;BME280;43953;45.508;-122.806;2023-07-29T00:51:45;100739.75;;;27.05;37.48
50852;BME280;43953;45.508;-122.806;2023-07-29T00:52:17;100747.25;;;27.05;37.25
50852;BME280;43953;45.508;-122.806;2023-07-29T00:52:49;100737.00;;;27.05;37.39
50852;BME280;43953;45.508;-122.806;2023-07-29T00:53:21;100735.38;;;27.04;37.61
50852;BME280;43953;45.508;-122.806;2023-07-29T00:53:53;100739.75;;;27.05;37.57
50852;BME280;43953;45.508;-122.806;2023-07-29T00:54:25;100739.75;;;27.05;37.58
50852;BME280;43953;45.508;-122.806;2023-07-29T00:54:56;100737.00;;;27.05;37.89
50852;BME280;43953;45.508;-122.806;2023-07-29T00:55:28;100743.31;;;27.06;37.68
50852;BME280;43953;45.508;-122.806;2023-07-29T00:56:00;100735.03;;;27.06;37.95
50852;BME280;43953;45.508;-122.806;2023-07-29T00:56:32;100737.81;;;27.06;37.74
50852;BME280;43953;45.508;-122.806;2023-07-29T00:57:04;100740.25;;;27.07;37.44
50852;BME280;43953;45.508;-122.806;2023-07-29T00:57:36;100734.72;;;27.07;37.70
50852;BME280;43953;45.508;-122.806;2023-07-29T00:58:08;100743.84;;;27.08;37.24
50852;BME280;43953;45.508;-122.806;2023-07-29T00:58:40;100737.50;;;27.07;37.70
50852;BME280;43953;45.508;-122.806;2023-07-29T00:59:11;100735.84;;;27.06;37.21
50852;BME280;43953;45.508;-122.806;2023-07-29T00:59:44;100735.53;;;27.08;37.26
50852;BME280;43953;45.508;-122.806;2023-07-29T01:00:16;100737.16;;;27.09;37.33
50852;BME280;43953;45.508;-122.806;2023-07-29T01:00:47;100739.13;;;27.08;37.26
50852;BME280;43953;45.508;-122.806;2023-07-29T01:01:20;100735.22;;;27.09;37.11
50852;BME280;43953;45.508;-122.806;2023-07-29T01:01:52;100740.72;;;27.09;37.25
50852;BME280;43953;45.508;-122.806;2023-07-29T01:02:23;100734.09;;;27.10;36.95
50852;BME280;43953;45.508;-122.806;2023-07-29T01:02:55;100736.84;;;27.10;37.82
50852;BME280;43953;45.508;-122.806;2023-07-29T01:03:27;100742.06;;;27.12;37.44
50852;BME280;43953;45.508;-122.806;2023-07-29T01:03:59;100745.63;;;27.12;37.33
50852;BME280;43953;45.508;-122.806;2023-07-29T01:04:31;100737.34;;;27.12;37.38
50852;BME280;43953;45.508;-122.806;2023-07-29T01:05:03;100740.44;;;27.11;37.04
50852;BME280;43953;45.508;-122.806;2023-07-29T01:06:58;100744.50;;;27.13;36.82
50852;BME280;43953;45.508;-122.806;2023-07-29T01:07:55;100736.75;;;27.15;37.23
50852;BME280;43953;45.508;-122.806;2023-07-29T01:08:38;100737.22;;;27.17;37.27
50852;BME280;43953;45.508;-122.806;2023-07-29T01:11:57;100733.50;;;27.22;36.62
50852;BME280;43953;45.508;-122.806;2023-07-29T01:12:28;100730.41;;;27.23;36.57
50852;BME280;43953;45.508;-122.806;2023-07-29T01:13:13;100739.50;;;27.24;36.67
50852;BME280;43953;45.508;-122.806;2023-07-29T01:13:53;100731.22;;;27.24;36.52
50852;BME280;43953;45.508;-122.806;2023-07-29T01:14:47;100735.94;;;27.23;36.88
50852;BME280;43953;45.508;-122.806;2023-07-29T01:15:26;100730.09;;;27.25;36.91
50852;BME280;43953;45.508;-122.806;2023-07-29T01:16:23;100732.88;;;27.25;36.62
50852;BME280;43953;45.508;-122.806;2023-07-29T01:17:00;100730.91;;;27.26;36.94
50852;BME280;43953;45.508;-122.806;2023-07-29T01:17:43;100734.50;;;27.26;37.02
50852;BME280;43953;45.508;-122.806;2023-07-29T01:18:34;100736.44;;;27.26;36.63
50852;BME280;43953;45.508;-122.806;2023-07-29T01:19:06;100736.09;;;27.27;36.66
50852;BME280;43953;45.508;-122.806;2023-07-29T01:20:25;100731.72;;;27.26;36.87
50852;BME280;43953;45.508;-122.806;2023-07-29T01:21:03;100739.22;;;27.26;36.59
50852;BME280;43953;45.508;-122.806;2023-07-29T01:21:35;100737.25;;;27.26;36.40
50852;BME280;43953;45.508;-122.806;2023-07-29T01:22:09;100730.91;;;27.26;36.74
50852;BME280;43953;45.508;-122.806;2023-07-29T01:22:42;100736.44;;;27.26;36.70
50852;BME280;43953;45.508;-122.806;2023-07-29T01:23:14;100732.06;;;27.25;36.77
50852;BME280;43953;45.508;-122.806;2023-07-29T01:23:47;100738.41;;;27.25;37.02
50852;BME280;43953;45.508;-122.806;2023-07-29T01:24:18;100729.28;;;27.25;36.73
50852;BME280;43953;45.508;-122.806;2023-07-29T01:24:50;100728.97;;;27.26;36.88
50852;BME280;43953;45.508;-122.806;2023-07-29T01:25:22;100731.72;;;27.26;37.36
50852;BME280;43953;45.508;-122.806;2023-07-29T01:25:53;100733.69;;;27.26;37.00
50852;BME280;43953;45.508;-122.806;2023-07-29T01:26:25;100729.78;;;27.27;36.62
50852;BME280;43953;45.508;-122.806;2023-07-29T01:26:58;100730.91;;;27.26;36.73
50852;BME280;43953;45.508;-122.806;2023-07-29T01:27:32;100735.63;;;27.25;36.53
50852;BME280;43953;45.508;-122.806;2023-07-29T01:28:04;100735.63;;;27.25;37.08
50852;BME280;43953;45.508;-122.806;2023-07-29T01:28:36;100731.72;;;27.26;36.75
50852;BME280;43953;45.508;-122.806;2023-07-29T01:29:07;100728.47;;;27.24;36.40
50852;BME280;43953;45.508;-122.806;2023-07-29T01:29:39;100726.53;;;27.25;36.56
50852;BME280;43953;45.508;-122.806;2023-07-29T01:30:14;100726.53;;;27.25;36.33
50852;BME280;43953;45.508;-122.806;2023-07-29T01:30:49;100732.88;;;27.25;36.46
50852;BME280;43953;45.508;-122.806;2023-07-29T01:31:25;100728.16;;;27.26;36.24
50852;BME280;43953;45.508;-122.806;2023-07-29T01:32:06;100732.53;;;27.27;36.16
50852;BME280;43953;45.508;-122.806;2023-07-29T01:32:54;100727.00;;;27.27;36.69
50852;BME280;43953;45.508;-122.806;2023-07-29T01:33:30;100729.47;;;27.28;36.74
50852;BME280;43953;45.508;-122.806;2023-07-29T01:34:24;100728.66;;;27.28;36.39
50852;BME280;43953;45.508;-122.806;2023-07-29T01:35:03;100733.03;;;27.29;36.51
50852;BME280;43953;45.508;-122.806;2023-07-29T01:36:20;100728.00;;;27.31;36.71
50852;BME280;43953;45.508;-122.806;2023-07-29T01:36:54;100733.53;;;27.31;36.56
50852;BME280;43953;45.508;-122.806;2023-07-29T01:37:31;100732.41;;;27.32;36.36
50852;BME280;43953;45.508;-122.806;2023-07-29T01:38:13;100732.41;;;27.32;36.46
50852;BME280;43953;45.508;-122.806;2023-07-29T01:38:48;100731.25;;;27.33;36.31
50852;BME280;43953;45.508;-122.806;2023-07-29T01:39:22;100728.00;;;27.31;36.17
50852;BME280;43953;45.508;-122.806;2023-07-29T01:39:57;100735.16;;;27.32;36.35
50852;BME280;43953;45.508;-122.806;2023-07-29T01:40:30;100728.81;;;27.31;36.54
50852;BME280;43953;45.508;-122.806;2023-07-29T01:41:04;100729.13;;;27.30;36.24
50852;BME280;43953;45.508;-122.806;2023-07-29T01:41:37;100727.19;;;27.30;36.57
50852;BME280;43953;45.508;-122.806;2023-07-29T01:42:09;100733.53;;;27.31;36.56
50852;BME280;43953;45.508;-122.806;2023-07-29T01:42:42;100731.06;;;27.29;36.18
50852;BME280;43953;45.508;-122.806;2023-07-29T01:43:14;100725.56;;;27.29;36.45
50852;BME280;43953;45.508;-122.806;2023-07-29T01:43:46;100731.88;;;27.30;36.43
50852;BME280;43953;45.508;-122.806;2023-07-29T01:44:19;100737.41;;;27.30;36.31
50852;BME280;43953;45.508;-122.806;2023-07-29T01:44:51;100731.06;;;27.29;36.26
50852;BME280;43953;45.508;-122.806;2023-07-29T01:45:24;100735.81;;;27.29;36.65
50852;BME280;43953;45.508;-122.806;2023-07-29T01:45:56;100736.59;;;27.29;36.40
50852;BME280;43953;45.508;-122.806;2023-07-29T01:46:28;100724.75;;;27.29;36.33
50852;BME280;43953;45.508;-122.806;2023-07-29T01:47:00;100731.06;;;27.29;36.63
50852;BME280;43953;45.508;-122.806;2023-07-29T01:47:32;100733.03;;;27.29;36.44
50852;BME280;43953;45.508;-122.806;2023-07-29T01:48:07;100738.56;;;27.29;36.50
50852;BME280;43953;45.508;-122.806;2023-07-29T01:48:39;100735.81;;;27.29;36.32
50852;BME280;43953;45.508;-122.806;2023-07-29T01:49:11;100735.00;;;27.28;36.61
50852;BME280;43953;45.508;-122.806;2023-07-29T01:49:43;100737.41;;;27.30;36.13
50852;BME280;43953;45.508;-122.806;2023-07-29T01:50:15;100733.03;;;27.29;36.47
50852;BME280;43953;45.508;-122.806;2023-07-29T01:50:46;100725.88;;;27.28;36.48
50852;BME280;43953;45.508;-122.806;2023-07-29T01:51:18;100734.66;;;27.30;35.79
50852;BME280;43953;45.508;-122.806;2023-07-29T01:51:50;100737.41;;;27.30;36.33
50852;BME280;43953;45.508;-122.806;2023-07-29T01:52:22;100734.66;;;27.30;36.28
50852;BME280;43953;45.508;-122.806;2023-07-29T01:52:54;100734.66;;;27.30;35.95
50852;BME280;43953;45.508;-122.806;2023-07-29T01:53:25;100731.88;;;27.30;36.23
50852;BME280;43953;45.508;-122.806;2023-07-29T01:53:57;100733.53;;;27.31;36.15
50852;BME280;43953;45.508;-122.806;2023-07-29T01:54:30;100729.97;;;27.30;35.76
50852;BME280;43953;45.508;-122.806;2023-07-29T01:55:02;100731.59;;;27.31;36.03
50852;BME280;43953;45.508;-122.806;2023-07-29T01:55:34;100735.16;;;27.32;36.08
50852;BME280;43953;45.508;-122.806;2023-07-29T01:56:06;100736.78;;;27.33;35.64
50852;BME280;43953;45.508;-122.806;2023-07-29T01:56:38;100732.91;;;27.34;35.80
50852;BME280;43953;45.508;-122.806;2023-07-29T01:57:09;100736.78;;;27.33;36.04
50852;BME280;43953;45.508;-122.806;2023-07-29T01:57:41;100729.31;;;27.33;36.04
50852;BME280;43953;45.508;-122.806;2023-07-29T01:58:13;100737.28;;;27.35;36.30
50852;BME280;43953;45.508;-122.806;2023-07-29T01:58:45;100734.50;;;27.35;36.42
50852;BME280;43953;45.508;-122.806;2023-07-29T01:59:19;100737.28;;;27.35;36.49
50852;BME280;43953;45.508;-122.806;2023-07-29T01:59:51;100739.72;;;27.36;36.46
50852;BME280;43953;45.508;-122.806;2023-07-29T02:00:23;100733.38;;;27.36;36.11
50852;BME280;43953;45.508;-122.806;2023-07-29T02:00:55;100736.13;;;27.36;36.62
50852;BME280;43953;45.508;-122.806;2023-07-29T02:01:26;100735.00;;;27.37;36.42
50852;BME280;43953;45.508;-122.806;2023-07-29T02:01:58;100729.78;;;27.35;36.73
50852;BME280;43953;45.508;-122.806;2023-07-29T02:02:30;100736.13;;;27.36;36.69
50852;BME280;43953;45.508;-122.806;2023-07-29T02:03:01;100734.50;;;27.35;36.52
50852;BME280;43953;45.508;-122.806;2023-07-29T02:03:33;100736.13;;;27.36;36.27
50852;BME280;43953;45.508;-122.806;2023-07-29T02:04:05;100736.13;;;27.36;36.65
50852;BME280;43953;45.508;-122.806;2023-07-29T02:04:37;100731.44;;;27.36;36.35
50852;BME280;43953;45.508;-122.806;2023-07-29T02:05:08;100732.25;;;27.37;36.64
50852;BME280;43953;45.508;-122.806;2023-07-29T02:05:40;100738.91;;;27.36;36.68
50852;BME280;43953;45.508;-122.806;2023-07-29T02:06:14;100734.50;;;27.35;36.67
50852;BME280;43953;45.508;-122.806;2023-07-29T02:06:46;100741.66;;;27.36;36.77
50852;BME280;43953;45.508;-122.806;2023-07-29T02:07:18;100736.97;;;27.36;36.44
50852;BME280;43953;45.508;-122.806;2023-07-29T02:07:50;100738.09;;;27.35;36.65
50852;BME280;43953;45.508;-122.806;2023-07-29T02:08:22;100734.50;;;27.35;36.41
50852;BME280;43953;45.508;-122.806;2023-07-29T02:08:56;100736.13;;;27.36;36.91
50852;BME280;43953;45.508;-122.806;2023-07-29T02:09:27;100734.50;;;27.35;36.73
50852;BME280;43953;45.508;-122.806;2023-07-29T02:10:00;100730.59;;;27.36;36.48
50852;BME280;43953;45.508;-122.806;2023-07-29T02:10:31;100728.97;;;27.35;36.67
50852;BME280;43953;45.508;-122.806;2023-07-29T02:11:03;100736.97;;;27.36;36.75
50852;BME280;43953;45.508;-122.806;2023-07-29T02:11:35;100737.78;;;27.37;36.74
50852;BME280;43953;45.508;-122.806;2023-07-29T02:12:07;100737.78;;;27.37;36.63
50852;BME280;43953;45.508;-122.806;2023-07-29T02:12:39;100727.84;;;27.36;36.62
50852;BME280;43953;45.508;-122.806;2023-07-29T02:13:11;100736.97;;;27.36;36.60
50852;BME280;43953;45.508;-122.806;2023-07-29T02:13:43;100740.03;;;27.35;36.57
50852;BME280;43953;45.508;-122.806;2023-07-29T02:14:15;100740.84;;;27.35;36.41
50852;BME280;43953;45.508;-122.806;2023-07-29T02:14:46;100741.66;;;27.36;36.56
50852;BME280;43953;45.508;-122.806;2023-07-29T02:15:18;100738.91;;;27.36;36.72
50852;BME280;43953;45.508;-122.806;2023-07-29T02:15:50;100735.31;;;27.35;37.01
50852;BME280;43953;45.508;-122.806;2023-07-29T02:16:22;100741.66;;;27.36;36.89
50852;BME280;43953;45.508;-122.806;2023-07-29T02:16:56;100741.66;;;27.36;36.74
50852;BME280;43953;45.508;-122.806;2023-07-29T02:17:28;100739.72;;;27.36;36.54
50852;BME280;43953;45.508;-122.806;2023-07-29T02:17:59;100748.03;;;27.36;36.55
50852;BME280;43953;45.508;-122.806;2023-07-29T02:18:33;100745.25;;;27.36;36.28
50852;BME280;43953;45.508;-122.806;2023-07-29T02:19:04;100744.13;;;27.37;36.25
50852;BME280;43953;45.508;-122.806;2023-07-29T02:19:36;100741.66;;;27.36;36.19
50852;BME280;43953;45.508;-122.806;2023-07-29T02:20:08;100745.75;;;27.38;36.28
50852;BME280;43953;45.508;-122.806;2023-07-29T02:20:41;100746.88;;;27.37;36.46
50852;BME280;43953;45.508;-122.806;2023-07-29T02:21:20;100743.78;;;27.39;36.36
50852;BME280;43953;45.508;-122.806;2023-07-29T02:21:51;100747.38;;;27.39;36.73
50852;BME280;43953;45.508;-122.806;2023-07-29T02:22:23;100744.94;;;27.38;36.49
50852;BME280;43953;45.508;-122.806;2023-07-29T02:22:55;100750.47;;;27.38;36.61
50852;BME280;43953;45.508;-122.806;2023-07-29T02:23:26;100744.13;;;27.37;36.27
50852;BME280;43953;45.508;-122.806;2023-07-29T02:23:58;100752.06;;;27.39;36.92
50852;BME280;43953;45.508;-122.806;2023-07-29T02:24:30;100752.06;;;27.39;36.45
50852;BME280;43953;45.508;-122.806;2023-07-29T02:25:02;100751.25;;;27.38;36.40
50852;BME280;43953;45.508;-122.806;2023-07-29T02:25:35;100748.19;;;27.40;36.45
50852;BME280;43953;45.508;-122.806;2023-07-29T02:26:08;100753.72;;;27.40;36.73
50852;BME280;43953;45.508;-122.806;2023-07-29T02:26:39;100748.19;;;27.40;36.69
50852;BME280;43953;45.508;-122.806;2023-07-29T02:27:11;100749.81;;;27.41;36.84
50852;BME280;43953;45.508;-122.806;2023-07-29T02:27:43;100754.22;;;27.42;36.97
50852;BME280;43953;45.508;-122.806;2023-07-29T02:28:15;100748.19;;;27.40;36.80
50852;BME280;43953;45.508;-122.806;2023-07-29T02:28:46;100752.28;;;27.42;36.50
50852;BME280;43953;45.508;-122.806;2023-07-29T02:29:18;100753.06;;;27.43;36.93
50852;BME280;43953;45.508;-122.806;2023-07-29T02:29:50;100760.22;;;27.44;36.50
50852;BME280;43953;45.508;-122.806;2023-07-29T02:30:22;100750.31;;;27.43;37.12
50852;BME280;43953;45.508;-122.806;2023-07-29T02:31:42;100756.66;;;27.43;36.38
50852;BME280;43953;45.508;-122.806;2023-07-29T02:32:15;100752.75;;;27.44;36.58
50852;BME280;43953;45.508;-122.806;2023-07-29T02:32:47;100749.16;;;27.44;36.73
50852;BME280;43953;45.508;-122.806;2023-07-29T02:33:18;100759.91;;;27.45;36.32
50852;BME280;43953;45.508;-122.806;2023-07-29T02:33:50;100764.66;;;27.45;36.60
50852;BME280;43953;45.508;-122.806;2023-07-29T02:34:22;100758.28;;;27.44;36.74
50852;BME280;43953;45.508;-122.806;2023-07-29T02:34:54;100753.06;;;27.43;36.92
50852;BME280;43953;45.508;-122.806;2023-07-29T02:35:26;100757.47;;;27.44;36.70
50852;BME280;43953;45.508;-122.806;2023-07-29T02:35:57;100757.47;;;27.44;37.08
50852;BME280;43953;45.508;-122.806;2023-07-29T02:36:29;100754.69;;;27.44;37.07
50852;BME280;43953;45.508;-122.806;2023-07-29T02:37:01;100750.31;;;27.43;36.71
50852;BME280;43953;45.508;-122.806;2023-07-29T02:37:32;100752.28;;;27.42;36.80
50852;BME280;43953;45.508;-122.806;2023-07-29T02:38:04;100757.81;;;27.42;36.50
50852;BME280;43953;45.508;-122.806;2023-07-29T02:38:36;100755.84;;;27.43;36.39
50852;BME280;43953;45.508;-122.806;2023-07-29T02:39:07;100755.84;;;27.43;36.86
50852;BME280;43953;45.508;-122.806;2023-07-29T02:39:39;100748.69;;;27.42;36.80
50852;BME280;43953;45.508;-122.806;2023-07-29T02:40:11;100757.00;;;27.42;37.16
50852;BME280;43953;45.508;-122.806;2023-07-29T02:40:43;100760.88;;;27.41;36.65
50852;BME280;43953;45.508;-122.806;2023-07-29T02:41:14;100757.00;;;27.42;36.74
50852;BME280;43953;45.508;-122.806;2023-07-29T02:41:47;100766.09;;;27.42;37.03
50852;BME280;43953;45.508;-122.806;2023-07-29T02:42:19;100757.00;;;27.42;36.79
50852;BME280;43953;45.508;-122.806;2023-07-29T02:42:50;100758.59;;;27.43;37.15
50852;BME280;43953;45.508;-122.806;2023-07-29T02:43:22;100768.06;;;27.42;37.14
50852;BME280;43953;45.508;-122.806;2023-07-29T02:43:54;100760.88;;;27.41;36.86
50852;BME280;43953;45.508;-122.806;2023-07-29T02:44:25;100758.91;;;27.41;37.02
50852;BME280;43953;45.508;-122.806;2023-07-29T02:44:57;100757.00;;;27.42;36.69
50852;BME280;43953;45.508;-122.806;2023-07-29T02:45:30;100757.00;;;27.42;36.86
50852;BME280;43953;45.508;-122.806;2023-07-29T02:46:02;100758.91;;;27.41;36.86
50852;BME280;43953;45.508;-122.806;2023-07-29T02:46:34;100762.03;;;27.40;37.03
50852;BME280;43953;45.508;-122.806;2023-07-29T02:47:05;100757.31;;;27.40;36.76
50852;BME280;43953;45.508;-122.806;2023-07-29T02:47:37;100757.31;;;27.40;36.81
50852;BME280;43953;45.508;-122.806;2023-07-29T02:48:09;100758.91;;;27.41;36.75
50852;BME280;43953;45.508;-122.806;2023-07-29T02:48:42;100760.06;;;27.40;37.11
50852;BME280;43953;45.508;-122.806;2023-07-29T02:49:14;100756.16;;;27.41;37.08
50852;BME280;43953;45.508;-122.806;2023-07-29T02:49:45;100763.34;;;27.42;37.00
50852;BME280;43953;45.508;-122.806;2023-07-29T02:50:17;100755.03;;;27.42;37.07
50852;BME280;43953;45.508;-122.806;2023-07-29T02:50:49;100755.84;;;27.43;37.10
50852;BME280;43953;45.508;-122.806;2023-07-29T02:51:20;100764.13;;;27.43;36.95
50852;BME280;43953;45.508;-122.806;2023-07-29T02:51:52;100768.53;;;27.44;36.67